Airport ICAO


07:27 UTC

26°C

Clear skies


An affordable passengers' Moving Map for your aircraft. Made for the iPad and the iPhone
More information here

LFMN Cote D'Azur


Nice FRANCE   VFR CAVOK


METAR LFMN 190700Z 34009KT CAVOK 26/15 Q1017 NOSIG 0h27min

TAF LFMN 190200Z 1903/2009 34010KT CAVOK BECMG 1909/1911 18010KT TEMPO 1912/1919 FEW050CB BECMG 1918/1920 34010KT BECMG 2007/2008 09005KT 5h27min





NOTAMS

OPEN